createdAt,value
2022-08-17T00:00:01.209Z,6.40
2022-08-17T00:02:28.030Z,5.85
2022-08-17T00:04:55.646Z,6.72
2022-08-17T00:07:23.081Z,7.50
2022-08-17T00:09:49.879Z,7.15
2022-08-17T00:12:43.683Z,6.10
2022-08-17T00:15:05.953Z,7.05
2022-08-17T00:17:37.342Z,5.70
2022-08-17T00:20:04.840Z,5.93
2022-08-17T00:22:36.122Z,6.93
2022-08-17T00:25:13.039Z,7.47
2022-08-17T00:27:40.243Z,6.60
2022-08-17T00:30:09.591Z,7.35
2022-08-17T00:33:15.479Z,7.95
2022-08-17T00:35:32.747Z,8.77
2022-08-17T00:37:59.647Z,6.97
2022-08-17T00:40:26.495Z,6.80
2022-08-17T00:43:14.952Z,8.77
2022-08-17T00:45:42.564Z,7.15
2022-08-17T00:48:29.547Z,6.65
2022-08-17T00:51:02.954Z,7.37
2022-08-17T00:53:33.038Z,7.32
2022-08-17T00:56:03.469Z,7.38
2022-08-17T00:58:36.346Z,5.80
2022-08-17T01:01:04.753Z,6.13
2022-08-17T01:03:31.715Z,6.87
2022-08-17T01:06:02.570Z,5.85
2022-08-17T01:08:31.253Z,6.13
2022-08-17T01:11:02.254Z,7.45
2022-08-17T01:13:41.213Z,7.07
2022-08-17T01:16:24.910Z,6.70
2022-08-17T01:18:54.938Z,7.70
2022-08-17T01:21:46.920Z,6.45
2022-08-17T01:24:14.835Z,7.88
2022-08-17T01:26:44.527Z,8.80
2022-08-17T01:29:12.773Z,6.53
2022-08-17T01:31:45.582Z,9.02
2022-08-17T01:34:14.318Z,6.82
2022-08-17T01:36:44.203Z,7.00
2022-08-17T01:39:25.252Z,9.40
2022-08-17T01:41:55.815Z,8.80
2022-08-17T01:44:26.171Z,8.88
2022-08-17T01:46:54.815Z,6.50
2022-08-17T01:49:21.656Z,7.45
2022-08-17T01:51:48.771Z,7.68
2022-08-17T01:54:18.970Z,6.10
2022-08-17T01:56:49.544Z,7.18
2022-08-17T01:59:18.299Z,8.70
2022-08-17T02:01:45.186Z,10.70
2022-08-17T02:04:12.830Z,9.40
2022-08-17T02:06:52.618Z,8.30
2022-08-17T02:09:25.889Z,8.07
2022-08-17T02:11:54.867Z,7.60
2022-08-17T02:14:24.043Z,8.55
2022-08-17T02:16:51.214Z,12.27
2022-08-17T02:19:18.117Z,10.43
2022-08-17T02:21:48.231Z,10.35
2022-08-17T02:24:58.366Z,9.65
2022-08-17T02:27:12.793Z,9.27
2022-08-17T02:29:39.650Z,8.13
2022-08-17T02:32:06.835Z,11.10
2022-08-17T02:34:33.602Z,12.48
2022-08-17T02:37:00.377Z,11.50
2022-08-17T02:39:27.269Z,9.52
2022-08-17T02:42:01.743Z,8.50
2022-08-17T02:44:39.578Z,8.57
2022-08-17T02:47:08.833Z,11.65
2022-08-17T02:49:35.911Z,11.52
2022-08-17T02:52:05.095Z,7.75
2022-08-17T02:54:40.002Z,9.80
2022-08-17T02:57:07.971Z,10.40
2022-08-17T02:59:34.653Z,8.70
2022-08-17T03:02:03.872Z,9.07
2022-08-17T03:04:31.258Z,10.30
2022-08-17T03:07:02.364Z,9.98
2022-08-17T03:09:29.227Z,10.33
2022-08-17T03:12:03.394Z,8.93
2022-08-17T03:14:32.212Z,8.65
2022-08-17T03:16:59.329Z,9.13
2022-08-17T03:19:26.115Z,9.50
2022-08-17T03:21:55.152Z,9.30
2022-08-17T03:24:25.127Z,14.93
2022-08-17T03:26:55.764Z,10.40
2022-08-17T03:29:22.652Z,10.45
2022-08-17T03:31:49.777Z,9.18
2022-08-17T03:34:16.956Z,11.17
2022-08-17T03:36:44.860Z,11.27
2022-08-17T03:39:11.680Z,10.23
2022-08-17T03:41:39.211Z,10.43
2022-08-17T03:44:06.200Z,12.45
2022-08-17T03:46:51.320Z,10.00
2022-08-17T03:49:36.756Z,10.95
2022-08-17T03:52:22.593Z,10.50
2022-08-17T03:55:07.836Z,10.13
2022-08-17T03:57:34.654Z,12.52
2022-08-17T04:00:01.550Z,11.10
2022-08-17T04:02:38.757Z,11.55
2022-08-17T04:05:06.024Z,11.50
2022-08-17T04:07:32.769Z,15.90
2022-08-17T04:10:00.264Z,12.25
2022-08-17T04:12:30.847Z,13.37
2022-08-17T04:14:58.237Z,16.13
2022-08-17T04:17:27.996Z,13.32
2022-08-17T04:19:55.326Z,12.90
2022-08-17T04:22:33.100Z,22.45
2022-08-17T04:25:17.091Z,15.93
2022-08-17T04:27:44.059Z,16.45
2022-08-17T04:30:11.395Z,15.50
2022-08-17T04:33:05.050Z,12.43
2022-08-17T04:35:55.683Z,12.00
2022-08-17T04:38:25.980Z,10.53
2022-08-17T04:41:11.756Z,19.38
2022-08-17T04:43:41.035Z,10.82
2022-08-17T04:46:10.674Z,11.75
2022-08-17T04:48:42.666Z,15.70
2022-08-17T04:51:31.879Z,9.40
2022-08-17T04:54:02.783Z,11.30
2022-08-17T04:56:30.691Z,11.35
2022-08-17T04:59:05.838Z,10.20
2022-08-17T05:01:34.909Z,11.82
2022-08-17T05:04:33.374Z,6.90
2022-08-17T05:06:55.739Z,9.85
2022-08-17T05:09:22.651Z,10.52
2022-08-17T05:11:51.378Z,8.40
2022-08-17T05:14:18.170Z,9.65
2022-08-17T05:16:45.879Z,9.97
2022-08-17T05:19:12.658Z,12.18
2022-08-17T05:21:39.478Z,9.65
2022-08-17T05:24:15.560Z,16.83
2022-08-17T05:26:53.199Z,9.90
2022-08-17T05:29:22.181Z,9.40
2022-08-17T05:32:37.897Z,9.65
2022-08-17T05:35:00.418Z,10.95
2022-08-17T05:37:27.554Z,13.38
2022-08-17T05:39:54.687Z,9.40
2022-08-17T05:42:22.038Z,13.20
2022-08-17T05:44:48.830Z,8.63
2022-08-17T05:47:15.739Z,9.48
2022-08-17T05:49:42.546Z,11.32
2022-08-17T05:52:47.042Z,10.68
2022-08-17T05:55:41.727Z,15.30
2022-08-17T05:58:31.240Z,16.77
2022-08-17T06:01:14.939Z,9.52
2022-08-17T06:04:06.240Z,8.48
2022-08-17T06:06:41.618Z,11.30
2022-08-17T06:09:45.611Z,10.30
2022-08-17T06:12:24.267Z,10.38
2022-08-17T06:15:28.346Z,9.32
2022-08-17T06:18:00.957Z,9.80
2022-08-17T06:20:42.719Z,14.80
2022-08-17T06:23:14.665Z,11.83
2022-08-17T06:25:52.223Z,10.77
2022-08-17T06:28:35.110Z,8.15
2022-08-17T06:31:08.095Z,9.68
2022-08-17T06:33:37.989Z,7.78
2022-08-17T06:36:17.534Z,8.70
2022-08-17T06:39:04.500Z,6.57
2022-08-17T06:41:45.042Z,8.50
2022-08-17T06:44:49.974Z,8.27
2022-08-17T06:48:02.392Z,9.55
2022-08-17T06:50:36.942Z,8.33
2022-08-17T06:53:22.020Z,8.80
2022-08-17T06:56:13.841Z,8.20
2022-08-17T06:58:43.420Z,8.85
2022-08-17T07:01:21.161Z,7.60
2022-08-17T07:04:21.719Z,9.23
2022-08-17T07:06:58.830Z,8.43
2022-08-17T07:09:34.729Z,10.63
2022-08-17T07:12:22.270Z,10.48
2022-08-17T07:14:54.056Z,13.60
2022-08-17T07:17:47.669Z,12.97
2022-08-17T07:20:15.139Z,11.57
2022-08-17T07:23:00.115Z,12.63
2022-08-17T07:25:28.615Z,10.85
2022-08-17T07:28:00.254Z,9.50
2022-08-17T07:30:44.596Z,10.30
2022-08-17T07:33:21.355Z,9.63
2022-08-17T07:35:50.013Z,9.82
2022-08-17T07:38:24.179Z,13.10
2022-08-17T07:41:02.195Z,11.13
2022-08-17T07:43:41.354Z,8.33
2022-08-17T07:46:29.716Z,8.32
2022-08-17T07:49:16.419Z,10.60
2022-08-17T07:51:43.293Z,8.98
2022-08-17T07:54:16.145Z,13.02
2022-08-17T07:56:53.131Z,10.37
2022-08-17T07:59:25.496Z,10.77
2022-08-17T08:01:58.359Z,12.30
2022-08-17T08:04:59.043Z,11.63
2022-08-17T08:07:32.000Z,10.85
2022-08-17T08:10:07.908Z,10.07
2022-08-17T08:12:36.735Z,9.55
2022-08-17T08:15:18.982Z,10.10
2022-08-17T08:18:19.358Z,11.00
2022-08-17T08:21:31.642Z,9.35
2022-08-17T08:24:21.314Z,15.53
2022-08-17T08:26:48.082Z,10.75
2022-08-17T08:29:50.156Z,15.40
2022-08-17T08:32:37.745Z,8.90
2022-08-17T08:35:45.068Z,10.32
2022-08-17T08:38:37.935Z,9.50
2022-08-17T08:41:22.624Z,13.32
2022-08-17T08:45:01.176Z,9.52
2022-08-17T08:47:55.299Z,9.40
2022-08-17T08:50:40.403Z,9.85
2022-08-17T08:53:21.383Z,9.97
2022-08-17T08:56:05.099Z,9.65
2022-08-17T08:58:42.469Z,12.07
2022-08-17T09:01:21.428Z,9.95
2022-08-17T09:04:29.521Z,8.40
2022-08-17T09:07:24.137Z,9.83
2022-08-17T09:10:29.895Z,9.45
2022-08-17T09:13:10.226Z,11.68
2022-08-17T09:15:50.506Z,10.48
2022-08-17T09:19:01.131Z,7.50
2022-08-17T09:21:21.539Z,7.23
2022-08-17T09:24:14.131Z,7.93
2022-08-17T09:26:53.959Z,8.80
2022-08-17T09:29:25.500Z,9.95
2022-08-17T09:31:56.936Z,7.07
2022-08-17T09:34:39.684Z,6.73
2022-08-17T09:37:20.775Z,8.73
2022-08-17T09:40:13.814Z,9.10
2022-08-17T09:43:09.675Z,10.07
2022-08-17T09:45:42.633Z,7.95
2022-08-17T09:48:21.942Z,7.93
2022-08-17T09:51:04.639Z,8.65
2022-08-17T09:53:36.809Z,7.15
2022-08-17T09:56:24.551Z,8.02
2022-08-17T09:59:00.502Z,9.57
2022-08-17T10:01:55.900Z,6.87
2022-08-17T10:04:29.550Z,7.10
2022-08-17T10:07:05.446Z,7.68
2022-08-17T10:09:44.065Z,8.35
2022-08-17T10:12:29.834Z,8.32
2022-08-17T10:15:24.378Z,6.93
2022-08-17T10:18:13.210Z,7.88
2022-08-17T10:21:19.540Z,7.85
2022-08-17T10:24:09.354Z,7.88
2022-08-17T10:26:54.154Z,8.60
2022-08-17T10:29:49.227Z,8.50
2022-08-17T10:32:31.381Z,7.35
2022-08-17T10:35:18.922Z,5.82
2022-08-17T10:37:55.649Z,6.80
2022-08-17T10:40:45.858Z,6.03
2022-08-17T10:43:32.968Z,6.63
2022-08-17T10:46:37.104Z,7.32
2022-08-17T10:49:18.780Z,6.25
2022-08-17T10:51:54.507Z,6.35
2022-08-17T10:54:46.282Z,7.03
2022-08-17T10:57:33.993Z,6.80
2022-08-17T11:00:29.323Z,7.38
2022-08-17T11:02:58.021Z,7.03
2022-08-17T11:05:44.398Z,6.53
2022-08-17T11:08:51.948Z,16.27
2022-08-17T11:11:45.406Z,6.03
2022-08-17T11:14:30.116Z,7.75
2022-08-17T11:17:30.781Z,6.85
2022-08-17T11:20:10.698Z,5.80
2022-08-17T11:22:59.049Z,5.75
2022-08-17T11:25:53.491Z,6.40
2022-08-17T11:28:28.799Z,5.60
2022-08-17T11:30:59.413Z,6.15
2022-08-17T11:33:29.943Z,5.70
2022-08-17T11:36:08.206Z,6.45
2022-08-17T11:39:25.613Z,6.70
2022-08-17T11:41:59.794Z,7.22
2022-08-17T11:44:32.393Z,5.28
2022-08-17T11:47:23.487Z,7.25
2022-08-17T11:50:36.109Z,7.72
2022-08-17T11:53:03.873Z,5.70
2022-08-17T11:55:38.249Z,7.18
2022-08-17T11:58:25.882Z,6.63
2022-08-17T12:01:09.004Z,6.57
2022-08-17T12:03:55.643Z,8.35
2022-08-17T12:06:43.994Z,6.67
2022-08-17T12:09:17.166Z,5.93
2022-08-17T12:11:58.698Z,4.30
2022-08-17T12:15:07.999Z,4.43
2022-08-17T12:17:40.555Z,8.15
2022-08-17T12:20:23.121Z,8.27
2022-08-17T12:23:04.843Z,5.53
2022-08-17T12:25:57.162Z,5.68
2022-08-17T12:28:27.288Z,7.78
2022-08-17T12:31:02.630Z,6.50
2022-08-17T12:33:29.940Z,6.00
2022-08-17T12:36:06.181Z,4.57
2022-08-17T12:38:35.010Z,5.35
2022-08-17T12:41:24.847Z,4.60
2022-08-17T12:44:11.253Z,5.13
2022-08-17T12:46:53.407Z,6.03
2022-08-17T12:49:23.206Z,5.15
2022-08-17T12:51:53.597Z,6.53
2022-08-17T12:54:29.273Z,6.65
2022-08-17T12:56:57.260Z,5.68
2022-08-17T12:59:30.130Z,5.47
2022-08-17T13:01:57.976Z,5.63
2022-08-17T13:04:26.524Z,5.68
2022-08-17T13:07:00.093Z,4.85
2022-08-17T13:09:35.317Z,4.97
2022-08-17T13:12:07.780Z,5.90
2022-08-17T13:14:35.440Z,4.63
2022-08-17T13:17:09.626Z,4.50
2022-08-17T13:19:50.804Z,4.97
2022-08-17T13:22:22.389Z,4.22
2022-08-17T13:24:53.337Z,3.90
2022-08-17T13:27:23.639Z,4.78
2022-08-17T13:29:56.416Z,4.43
2022-08-17T13:32:36.696Z,4.40
2022-08-17T13:35:29.498Z,3.75
2022-08-17T13:38:07.848Z,4.50
2022-08-17T13:40:53.157Z,3.72
2022-08-17T13:43:45.046Z,4.60
2022-08-17T13:46:21.160Z,3.90
2022-08-17T13:49:05.146Z,4.60
2022-08-17T13:51:43.866Z,7.03
2022-08-17T13:54:25.734Z,4.22
2022-08-17T13:57:05.063Z,4.57
2022-08-17T13:59:54.513Z,5.30
2022-08-17T14:02:27.699Z,4.63
2022-08-17T14:04:56.289Z,6.63
2022-08-17T14:07:33.824Z,4.28
2022-08-17T14:10:07.341Z,5.88
2022-08-17T14:12:38.135Z,4.25
2022-08-17T14:15:06.035Z,4.53
2022-08-17T14:17:38.469Z,4.73
2022-08-17T14:20:09.367Z,8.15
2022-08-17T14:22:38.708Z,4.63
2022-08-17T14:25:10.299Z,4.53
2022-08-17T14:27:41.807Z,6.90
2022-08-17T14:30:20.574Z,5.87
2022-08-17T14:32:52.099Z,5.50
2022-08-17T14:35:22.245Z,6.65
2022-08-17T14:37:50.376Z,4.95
2022-08-17T14:40:20.819Z,4.95
2022-08-17T14:42:48.194Z,3.93
2022-08-17T14:45:29.938Z,4.72
2022-08-17T14:48:01.842Z,5.15
2022-08-17T14:50:28.760Z,4.80
2022-08-17T14:53:01.338Z,5.63
2022-08-17T14:55:29.796Z,4.13
2022-08-17T14:57:56.792Z,6.22
2022-08-17T15:00:23.712Z,5.13
2022-08-17T15:02:54.098Z,5.22
2022-08-17T15:05:24.666Z,5.18
2022-08-17T15:07:53.606Z,5.07
2022-08-17T15:10:20.722Z,5.78
2022-08-17T15:12:48.051Z,7.05
2022-08-17T15:15:17.202Z,6.50
2022-08-17T15:17:45.976Z,5.40
2022-08-17T15:20:16.672Z,4.63
2022-08-17T15:22:45.157Z,4.60
2022-08-17T15:25:12.822Z,4.78
2022-08-17T15:27:40.462Z,4.25
2022-08-17T15:30:09.919Z,4.50
2022-08-17T15:32:39.042Z,5.40
2022-08-17T15:35:07.945Z,3.70
2022-08-17T15:37:36.371Z,4.25
2022-08-17T15:40:04.044Z,4.72
2022-08-17T15:42:30.951Z,7.22
2022-08-17T15:44:59.967Z,6.80
2022-08-17T15:47:26.711Z,3.90
2022-08-17T15:49:57.952Z,4.88
2022-08-17T15:52:30.074Z,4.82
2022-08-17T15:55:00.551Z,5.53
2022-08-17T15:57:27.806Z,5.13
2022-08-17T15:59:58.648Z,3.97
2022-08-17T16:03:14.448Z,4.35
2022-08-17T16:05:20.372Z,5.18
2022-08-17T16:07:48.111Z,4.95
2022-08-17T16:10:18.983Z,8.63
2022-08-17T16:12:48.280Z,4.85
2022-08-17T16:15:16.850Z,3.95
2022-08-17T16:17:43.974Z,4.45
2022-08-17T16:20:19.616Z,5.40
2022-08-17T16:22:50.117Z,4.77
2022-08-17T16:25:21.850Z,4.93
2022-08-17T16:27:53.608Z,6.15
2022-08-17T16:30:25.118Z,6.80
2022-08-17T16:32:54.447Z,5.18
2022-08-17T16:35:26.657Z,9.90
2022-08-17T16:37:57.345Z,4.63
2022-08-17T16:40:26.895Z,5.70
2022-08-17T16:42:55.409Z,5.97
2022-08-17T16:45:28.028Z,5.25
2022-08-17T16:47:58.013Z,4.90
2022-08-17T16:50:25.300Z,4.60
2022-08-17T16:52:52.461Z,5.43
2022-08-17T16:55:22.213Z,5.22
2022-08-17T16:57:50.723Z,4.97
2022-08-17T17:00:20.298Z,5.10
2022-08-17T17:02:48.854Z,5.25
2022-08-17T17:05:55.190Z,5.38
2022-08-17T17:08:40.705Z,4.60
2022-08-17T17:11:24.971Z,6.45
2022-08-17T17:13:57.853Z,4.77
2022-08-17T17:17:06.148Z,4.57
2022-08-17T17:19:38.903Z,4.93
2022-08-17T17:22:20.407Z,4.97
2022-08-17T17:25:15.986Z,7.57
2022-08-17T17:28:08.829Z,7.70
2022-08-17T17:30:35.594Z,6.75
2022-08-17T17:33:07.058Z,4.82
2022-08-17T17:35:56.953Z,5.00
2022-08-17T17:38:40.402Z,5.60
2022-08-17T17:41:15.185Z,4.90
2022-08-17T17:43:42.242Z,6.22
2022-08-17T17:46:26.758Z,7.82
2022-08-17T17:48:55.298Z,6.65
2022-08-17T17:52:03.667Z,5.28
2022-08-17T17:54:54.066Z,5.20
2022-08-17T17:57:33.707Z,5.60
2022-08-17T18:00:10.732Z,9.48
2022-08-17T18:03:00.095Z,6.07
2022-08-17T18:05:52.612Z,7.47
2022-08-17T18:08:32.101Z,6.67
2022-08-17T18:11:09.330Z,5.55
2022-08-17T18:14:10.682Z,6.60
2022-08-17T18:16:39.675Z,5.78
2022-08-17T18:19:14.907Z,7.32
2022-08-17T18:21:45.981Z,7.70
2022-08-17T18:24:13.677Z,7.40
2022-08-17T18:26:57.351Z,9.50
2022-08-17T18:29:45.863Z,9.25
2022-08-17T18:32:26.802Z,7.97
2022-08-17T18:34:58.088Z,7.50
2022-08-17T18:37:45.185Z,6.80
2022-08-17T18:40:18.433Z,8.55
2022-08-17T18:43:00.541Z,8.60
2022-08-17T18:45:34.654Z,7.13
2022-08-17T18:48:02.757Z,7.40
2022-08-17T18:50:41.540Z,7.70
2022-08-17T18:53:38.847Z,7.78
2022-08-17T18:56:32.711Z,8.40
2022-08-17T18:59:38.934Z,6.97
2022-08-17T19:02:18.181Z,6.50
2022-08-17T19:05:01.430Z,7.45
2022-08-17T19:07:46.644Z,8.32
2022-08-17T19:10:16.615Z,7.55
2022-08-17T19:13:12.584Z,5.57
2022-08-17T19:16:11.922Z,6.00
2022-08-17T19:18:46.339Z,7.47
2022-08-17T19:21:19.784Z,5.57
2022-08-17T19:23:55.772Z,7.47
2022-08-17T19:26:53.474Z,5.57
2022-08-17T19:29:29.668Z,6.27
2022-08-17T19:31:58.691Z,7.05
2022-08-17T19:34:34.112Z,23.15
2022-08-17T19:37:35.188Z,26.60
2022-08-17T19:40:54.035Z,14.70
2022-08-17T19:43:33.271Z,10.23
2022-08-17T19:46:11.096Z,9.23
2022-08-17T19:48:51.931Z,8.98
2022-08-17T19:51:55.205Z,8.50
2022-08-17T19:54:29.365Z,9.52
2022-08-17T19:57:05.183Z,10.80
2022-08-17T19:59:53.624Z,7.45
2022-08-17T20:02:49.199Z,7.38
2022-08-17T20:05:27.638Z,9.63
2022-08-17T20:08:01.999Z,8.85
2022-08-17T20:10:54.764Z,7.17
2022-08-17T20:13:32.867Z,6.97
2022-08-17T20:16:00.238Z,6.93
2022-08-17T20:18:36.690Z,7.68
2022-08-17T20:21:29.101Z,7.68
2022-08-17T20:24:14.332Z,5.70
2022-08-17T20:26:51.247Z,6.18
2022-08-17T20:30:04.585Z,6.80
2022-08-17T20:32:36.615Z,5.93
2022-08-17T20:35:19.106Z,6.65
2022-08-17T20:38:11.089Z,7.80
2022-08-17T20:40:40.816Z,6.40
2022-08-17T20:43:35.678Z,6.25
2022-08-17T20:46:30.292Z,5.90
2022-08-17T20:49:14.651Z,18.73
2022-08-17T20:52:01.931Z,13.30
2022-08-17T20:54:40.810Z,10.73
2022-08-17T20:57:14.382Z,9.57
2022-08-17T20:59:45.122Z,7.25
2022-08-17T21:02:20.640Z,8.25
2022-08-17T21:04:50.486Z,6.30
2022-08-17T21:07:53.982Z,12.70
2022-08-17T21:10:24.088Z,11.35
2022-08-17T21:12:53.745Z,10.00
2022-08-17T21:15:23.079Z,9.30
2022-08-17T21:18:00.805Z,8.90
2022-08-17T21:20:35.719Z,8.13
2022-08-17T21:23:17.156Z,7.07
2022-08-17T21:25:56.148Z,9.07
2022-08-17T21:28:34.920Z,8.70
2022-08-17T21:31:08.962Z,7.23
2022-08-17T21:33:39.653Z,5.88
2022-08-17T21:36:12.433Z,6.65
2022-08-17T21:38:48.937Z,10.43
2022-08-17T21:41:28.627Z,9.15
2022-08-17T21:44:27.847Z,6.50
2022-08-17T21:47:19.251Z,6.60
2022-08-17T21:49:46.330Z,6.72
2022-08-17T21:52:19.328Z,7.97
2022-08-17T21:54:56.033Z,6.93
2022-08-17T21:57:29.990Z,8.77
2022-08-17T22:00:00.223Z,8.02
2022-08-17T22:02:38.189Z,7.43
2022-08-17T22:05:13.928Z,7.03
2022-08-17T22:07:45.913Z,8.32
2022-08-17T22:10:37.494Z,6.87
2022-08-17T22:13:17.043Z,7.72
2022-08-17T22:16:27.744Z,7.28
2022-08-17T22:18:57.698Z,7.57
2022-08-17T22:21:25.332Z,6.82
2022-08-17T22:24:15.962Z,6.87
2022-08-17T22:27:12.963Z,8.10
2022-08-17T22:29:57.860Z,7.47
2022-08-17T22:32:44.716Z,8.05
2022-08-17T22:35:34.450Z,8.50
2022-08-17T22:38:19.295Z,9.20
2022-08-17T22:40:52.408Z,7.65
2022-08-17T22:43:26.417Z,7.38
2022-08-17T22:45:57.530Z,7.45
2022-08-17T22:48:27.472Z,7.63
2022-08-17T22:51:19.041Z,7.50
2022-08-17T22:54:10.128Z,7.07
2022-08-17T22:56:56.403Z,8.20
2022-08-17T22:59:43.817Z,8.43
2022-08-17T23:02:13.096Z,8.43
2022-08-17T23:04:47.730Z,7.57
2022-08-17T23:07:15.323Z,9.52
2022-08-17T23:09:42.270Z,7.75
2022-08-17T23:12:14.877Z,8.18
2022-08-17T23:14:42.485Z,7.03
2022-08-17T23:17:09.245Z,7.43
2022-08-17T23:19:36.047Z,6.53
2022-08-17T23:22:06.366Z,7.15
2022-08-17T23:24:40.608Z,7.10
2022-08-17T23:27:07.629Z,9.57
2022-08-17T23:29:35.278Z,6.90
2022-08-17T23:32:04.777Z,6.05
2022-08-17T23:34:31.748Z,6.60
2022-08-17T23:36:58.679Z,8.23
2022-08-17T23:39:28.203Z,8.57
2022-08-17T23:41:57.833Z,7.47
2022-08-17T23:44:25.365Z,7.20
2022-08-17T23:46:53.795Z,7.22
2022-08-17T23:49:20.779Z,6.28
2022-08-17T23:51:48.731Z,8.05
2022-08-17T23:54:29.243Z,9.83
2022-08-17T23:56:56.353Z,6.93
2022-08-17T23:59:23.785Z,7.35
